sensor_id;sensor_type;location;lat;lon;timestamp;P1;durP1;ratioP1;P2;durP2;ratioP2
66546;SDS011;53400;50.364;14.874;2022-10-19T00:01:52;13.15;;;7.55;;
66546;SDS011;53400;50.364;14.874;2022-10-19T00:04:18;10.57;;;7.32;;
66546;SDS011;53400;50.364;14.874;2022-10-19T00:06:45;12.98;;;7.75;;
66546;SDS011;53400;50.364;14.874;2022-10-19T00:09:13;14.77;;;8.25;;
66546;SDS011;53400;50.364;14.874;2022-10-19T00:11:41;13.85;;;8.13;;
66546;SDS011;53400;50.364;14.874;2022-10-19T00:14:10;13.32;;;8.45;;
66546;SDS011;53400;50.364;14.874;2022-10-19T00:16:38;22.52;;;12.70;;
66546;SDS011;53400;50.364;14.874;2022-10-19T00:19:07;16.92;;;10.27;;
66546;SDS011;53400;50.364;14.874;2022-10-19T00:21:37;14.25;;;9.27;;
66546;SDS011;53400;50.364;14.874;2022-10-19T00:24:05;15.02;;;8.65;;
66546;SDS011;53400;50.364;14.874;2022-10-19T00:26:31;15.80;;;8.65;;
66546;SDS011;53400;50.364;14.874;2022-10-19T00:28:57;13.73;;;8.70;;
66546;SDS011;53400;50.364;14.874;2022-10-19T00:31:24;18.33;;;8.75;;
66546;SDS011;53400;50.364;14.874;2022-10-19T00:33:51;14.30;;;8.98;;
66546;SDS011;53400;50.364;14.874;2022-10-19T00:36:17;16.15;;;8.57;;
66546;SDS011;53400;50.364;14.874;2022-10-19T00:38:45;14.48;;;8.88;;
66546;SDS011;53400;50.364;14.874;2022-10-19T00:41:13;14.93;;;8.70;;
66546;SDS011;53400;50.364;14.874;2022-10-19T00:43:49;16.20;;;8.70;;
66546;SDS011;53400;50.364;14.874;2022-10-19T00:46:18;16.90;;;8.70;;
66546;SDS011;53400;50.364;14.874;2022-10-19T00:48:44;17.75;;;9.35;;
66546;SDS011;53400;50.364;14.874;2022-10-19T00:51:10;14.15;;;8.55;;
66546;SDS011;53400;50.364;14.874;2022-10-19T00:53:36;15.95;;;8.82;;
66546;SDS011;53400;50.364;14.874;2022-10-19T00:56:04;15.55;;;8.45;;
66546;SDS011;53400;50.364;14.874;2022-10-19T00:58:35;16.25;;;8.98;;
66546;SDS011;53400;50.364;14.874;2022-10-19T01:01:02;18.63;;;9.65;;
66546;SDS011;53400;50.364;14.874;2022-10-19T01:03:30;17.15;;;9.00;;
66546;SDS011;53400;50.364;14.874;2022-10-19T01:05:56;15.50;;;9.70;;
66546;SDS011;53400;50.364;14.874;2022-10-19T01:08:22;17.10;;;9.13;;
66546;SDS011;53400;50.364;14.874;2022-10-19T01:10:50;17.45;;;9.68;;
66546;SDS011;53400;50.364;14.874;2022-10-19T01:13:25;15.48;;;9.18;;
66546;SDS011;53400;50.364;14.874;2022-10-19T01:16:06;19.02;;;10.60;;
66546;SDS011;53400;50.364;14.874;2022-10-19T01:18:38;19.05;;;10.63;;
66546;SDS011;53400;50.364;14.874;2022-10-19T01:21:20;19.00;;;10.98;;
66546;SDS011;53400;50.364;14.874;2022-10-19T01:30:02;20.75;;;11.02;;
66546;SDS011;53400;50.364;14.874;2022-10-19T01:32:35;18.60;;;11.40;;
66546;SDS011;53400;50.364;14.874;2022-10-19T01:35:09;18.75;;;10.85;;
66546;SDS011;53400;50.364;14.874;2022-10-19T01:37:43;17.38;;;10.02;;
66546;SDS011;53400;50.364;14.874;2022-10-19T01:40:14;19.80;;;10.45;;
66546;SDS011;53400;50.364;14.874;2022-10-19T01:42:52;19.17;;;10.60;;
66546;SDS011;53400;50.364;14.874;2022-10-19T01:45:26;17.77;;;10.90;;
66546;SDS011;53400;50.364;14.874;2022-10-19T01:47:58;18.67;;;10.68;;
66546;SDS011;53400;50.364;14.874;2022-10-19T01:50:28;18.13;;;10.48;;
66546;SDS011;53400;50.364;14.874;2022-10-19T01:53:00;19.02;;;10.60;;
66546;SDS011;53400;50.364;14.874;2022-10-19T01:55:30;19.02;;;10.85;;
66546;SDS011;53400;50.364;14.874;2022-10-19T01:57:57;21.33;;;11.43;;
66546;SDS011;53400;50.364;14.874;2022-10-19T02:00:28;22.15;;;12.82;;
66546;SDS011;53400;50.364;14.874;2022-10-19T02:02:55;22.90;;;12.93;;
66546;SDS011;53400;50.364;14.874;2022-10-19T02:05:26;22.83;;;11.90;;
66546;SDS011;53400;50.364;14.874;2022-10-19T02:07:57;18.98;;;10.85;;
66546;SDS011;53400;50.364;14.874;2022-10-19T02:10:25;21.83;;;11.10;;
66546;SDS011;53400;50.364;14.874;2022-10-19T02:12:52;19.38;;;11.05;;
66546;SDS011;53400;50.364;14.874;2022-10-19T02:15:20;19.35;;;11.30;;
66546;SDS011;53400;50.364;14.874;2022-10-19T02:17:51;20.08;;;11.20;;
66546;SDS011;53400;50.364;14.874;2022-10-19T02:20:21;20.55;;;11.52;;
66546;SDS011;53400;50.364;14.874;2022-10-19T02:22:48;19.75;;;11.10;;
66546;SDS011;53400;50.364;14.874;2022-10-19T02:25:14;19.65;;;10.73;;
66546;SDS011;53400;50.364;14.874;2022-10-19T02:27:40;17.80;;;10.20;;
66546;SDS011;53400;50.364;14.874;2022-10-19T02:30:07;20.95;;;10.45;;
66546;SDS011;53400;50.364;14.874;2022-10-19T02:32:35;19.88;;;11.05;;
66546;SDS011;53400;50.364;14.874;2022-10-19T02:35:02;17.25;;;9.68;;
66546;SDS011;53400;50.364;14.874;2022-10-19T02:37:29;18.40;;;11.25;;
66546;SDS011;53400;50.364;14.874;2022-10-19T02:39:55;20.35;;;10.60;;
66546;SDS011;53400;50.364;14.874;2022-10-19T02:42:23;17.90;;;10.73;;
66546;SDS011;53400;50.364;14.874;2022-10-19T02:44:55;18.40;;;10.00;;
66546;SDS011;53400;50.364;14.874;2022-10-19T02:47:25;14.48;;;8.73;;
66546;SDS011;53400;50.364;14.874;2022-10-19T02:49:54;16.90;;;9.52;;
66546;SDS011;53400;50.364;14.874;2022-10-19T02:52:21;17.63;;;9.70;;
66546;SDS011;53400;50.364;14.874;2022-10-19T02:54:47;18.05;;;10.15;;
66546;SDS011;53400;50.364;14.874;2022-10-19T02:57:14;17.17;;;9.85;;
66546;SDS011;53400;50.364;14.874;2022-10-19T02:59:41;20.92;;;11.52;;
66546;SDS011;53400;50.364;14.874;2022-10-19T03:02:07;18.20;;;10.05;;
66546;SDS011;53400;50.364;14.874;2022-10-19T03:04:33;15.35;;;9.68;;
66546;SDS011;53400;50.364;14.874;2022-10-19T03:06:59;16.08;;;10.13;;
66546;SDS011;53400;50.364;14.874;2022-10-19T03:09:27;18.40;;;10.20;;
66546;SDS011;53400;50.364;14.874;2022-10-19T03:11:53;16.65;;;9.77;;
66546;SDS011;53400;50.364;14.874;2022-10-19T03:14:20;16.63;;;10.05;;
66546;SDS011;53400;50.364;14.874;2022-10-19T03:16:46;21.52;;;10.40;;
66546;SDS011;53400;50.364;14.874;2022-10-19T03:19:12;19.10;;;9.82;;
66546;SDS011;53400;50.364;14.874;2022-10-19T03:21:38;19.95;;;10.43;;
66546;SDS011;53400;50.364;14.874;2022-10-19T03:24:04;17.45;;;9.90;;
66546;SDS011;53400;50.364;14.874;2022-10-19T03:26:32;21.33;;;10.68;;
66546;SDS011;53400;50.364;14.874;2022-10-19T03:28:58;18.50;;;10.25;;
66546;SDS011;53400;50.364;14.874;2022-10-19T03:31:23;19.50;;;11.27;;
66546;SDS011;53400;50.364;14.874;2022-10-19T03:33:51;21.10;;;11.02;;
66546;SDS011;53400;50.364;14.874;2022-10-19T03:36:20;22.52;;;10.70;;
66546;SDS011;53400;50.364;14.874;2022-10-19T03:38:48;22.80;;;10.82;;
66546;SDS011;53400;50.364;14.874;2022-10-19T03:41:15;18.00;;;10.10;;
66546;SDS011;53400;50.364;14.874;2022-10-19T03:43:42;18.98;;;10.15;;
66546;SDS011;53400;50.364;14.874;2022-10-19T03:46:08;20.60;;;10.20;;
66546;SDS011;53400;50.364;14.874;2022-10-19T03:48:34;20.95;;;10.82;;
66546;SDS011;53400;50.364;14.874;2022-10-19T03:51:01;18.98;;;10.85;;
66546;SDS011;53400;50.364;14.874;2022-10-19T03:53:29;18.08;;;10.13;;
66546;SDS011;53400;50.364;14.874;2022-10-19T03:55:59;19.05;;;10.70;;
66546;SDS011;53400;50.364;14.874;2022-10-19T03:58:26;17.20;;;9.95;;
66546;SDS011;53400;50.364;14.874;2022-10-19T04:00:53;16.55;;;9.55;;
66546;SDS011;53400;50.364;14.874;2022-10-19T04:03:19;22.08;;;10.88;;
66546;SDS011;53400;50.364;14.874;2022-10-19T04:05:45;16.25;;;8.60;;
66546;SDS011;53400;50.364;14.874;2022-10-19T04:08:11;16.88;;;9.18;;
66546;SDS011;53400;50.364;14.874;2022-10-19T04:10:36;13.82;;;8.35;;
66546;SDS011;53400;50.364;14.874;2022-10-19T04:13:02;15.63;;;8.65;;
66546;SDS011;53400;50.364;14.874;2022-10-19T04:15:28;13.40;;;7.75;;
66546;SDS011;53400;50.364;14.874;2022-10-19T04:17:55;15.13;;;7.85;;
66546;SDS011;53400;50.364;14.874;2022-10-19T04:20:21;15.48;;;9.35;;
66546;SDS011;53400;50.364;14.874;2022-10-19T04:22:47;14.75;;;8.02;;
66546;SDS011;53400;50.364;14.874;2022-10-19T04:25:13;14.70;;;8.00;;
66546;SDS011;53400;50.364;14.874;2022-10-19T04:27:39;17.92;;;8.38;;
66546;SDS011;53400;50.364;14.874;2022-10-19T04:30:05;18.40;;;8.18;;
66546;SDS011;53400;50.364;14.874;2022-10-19T04:32:32;16.30;;;8.32;;
66546;SDS011;53400;50.364;14.874;2022-10-19T04:34:59;15.35;;;8.43;;
66546;SDS011;53400;50.364;14.874;2022-10-19T04:37:25;13.50;;;8.23;;
66546;SDS011;53400;50.364;14.874;2022-10-19T04:39:51;15.90;;;8.15;;
66546;SDS011;53400;50.364;14.874;2022-10-19T04:42:17;16.67;;;8.82;;
66546;SDS011;53400;50.364;14.874;2022-10-19T04:44:42;17.25;;;9.05;;
66546;SDS011;53400;50.364;14.874;2022-10-19T04:47:08;18.45;;;9.30;;
66546;SDS011;53400;50.364;14.874;2022-10-19T04:49:34;16.25;;;9.25;;
66546;SDS011;53400;50.364;14.874;2022-10-19T04:52:02;19.15;;;10.18;;
66546;SDS011;53400;50.364;14.874;2022-10-19T04:54:27;18.60;;;9.85;;
66546;SDS011;53400;50.364;14.874;2022-10-19T04:56:53;18.60;;;9.77;;
66546;SDS011;53400;50.364;14.874;2022-10-19T04:59:19;18.90;;;11.25;;
66546;SDS011;53400;50.364;14.874;2022-10-19T05:01:45;22.27;;;10.80;;
66546;SDS011;53400;50.364;14.874;2022-10-19T05:04:11;22.67;;;11.25;;
66546;SDS011;53400;50.364;14.874;2022-10-19T05:06:37;19.45;;;10.43;;
66546;SDS011;53400;50.364;14.874;2022-10-19T05:09:04;23.77;;;11.98;;
66546;SDS011;53400;50.364;14.874;2022-10-19T05:11:31;23.38;;;11.40;;
66546;SDS011;53400;50.364;14.874;2022-10-19T05:13:57;25.60;;;12.35;;
66546;SDS011;53400;50.364;14.874;2022-10-19T05:16:23;25.83;;;11.95;;
66546;SDS011;53400;50.364;14.874;2022-10-19T05:18:50;24.85;;;11.15;;
66546;SDS011;53400;50.364;14.874;2022-10-19T05:21:18;23.02;;;11.77;;
66546;SDS011;53400;50.364;14.874;2022-10-19T05:23:46;21.63;;;10.63;;
66546;SDS011;53400;50.364;14.874;2022-10-19T05:26:17;20.13;;;10.40;;
66546;SDS011;53400;50.364;14.874;2022-10-19T05:28:46;23.13;;;10.27;;
66546;SDS011;53400;50.364;14.874;2022-10-19T05:31:14;23.25;;;11.80;;
66546;SDS011;53400;50.364;14.874;2022-10-19T05:33:41;19.80;;;10.70;;
66546;SDS011;53400;50.364;14.874;2022-10-19T05:36:12;23.58;;;11.82;;
66546;SDS011;53400;50.364;14.874;2022-10-19T05:38:39;22.25;;;11.13;;
66546;SDS011;53400;50.364;14.874;2022-10-19T05:41:05;24.00;;;11.65;;
66546;SDS011;53400;50.364;14.874;2022-10-19T05:43:33;21.73;;;11.45;;
66546;SDS011;53400;50.364;14.874;2022-10-19T05:46:01;20.92;;;12.27;;
66546;SDS011;53400;50.364;14.874;2022-10-19T05:48:28;22.15;;;11.85;;
66546;SDS011;53400;50.364;14.874;2022-10-19T05:50:57;19.98;;;10.32;;
66546;SDS011;53400;50.364;14.874;2022-10-19T05:53:23;22.05;;;11.50;;
66546;SDS011;53400;50.364;14.874;2022-10-19T05:55:49;22.52;;;11.93;;
66546;SDS011;53400;50.364;14.874;2022-10-19T05:58:15;23.23;;;11.23;;
66546;SDS011;53400;50.364;14.874;2022-10-19T06:00:42;20.48;;;9.38;;
66546;SDS011;53400;50.364;14.874;2022-10-19T06:03:08;22.83;;;11.15;;
66546;SDS011;53400;50.364;14.874;2022-10-19T06:05:34;22.13;;;10.25;;
66546;SDS011;53400;50.364;14.874;2022-10-19T06:08:00;19.45;;;10.63;;
66546;SDS011;53400;50.364;14.874;2022-10-19T06:10:26;18.80;;;10.70;;
66546;SDS011;53400;50.364;14.874;2022-10-19T06:12:52;18.20;;;9.07;;
66546;SDS011;53400;50.364;14.874;2022-10-19T06:15:18;18.63;;;8.68;;
66546;SDS011;53400;50.364;14.874;2022-10-19T06:17:45;15.27;;;8.90;;
66546;SDS011;53400;50.364;14.874;2022-10-19T06:20:11;16.73;;;8.95;;
66546;SDS011;53400;50.364;14.874;2022-10-19T06:22:37;19.17;;;8.73;;
66546;SDS011;53400;50.364;14.874;2022-10-19T06:25:03;20.45;;;8.93;;
66546;SDS011;53400;50.364;14.874;2022-10-19T06:27:30;16.10;;;7.35;;
66546;SDS011;53400;50.364;14.874;2022-10-19T06:29:56;13.10;;;7.28;;
66546;SDS011;53400;50.364;14.874;2022-10-19T06:32:22;14.43;;;7.63;;
66546;SDS011;53400;50.364;14.874;2022-10-19T06:34:49;13.18;;;7.30;;
66546;SDS011;53400;50.364;14.874;2022-10-19T06:37:15;16.60;;;8.13;;
66546;SDS011;53400;50.364;14.874;2022-10-19T06:39:41;17.33;;;8.25;;
66546;SDS011;53400;50.364;14.874;2022-10-19T06:42:07;15.80;;;8.00;;
66546;SDS011;53400;50.364;14.874;2022-10-19T06:44:34;20.33;;;8.45;;
66546;SDS011;53400;50.364;14.874;2022-10-19T06:46:59;17.95;;;8.73;;
66546;SDS011;53400;50.364;14.874;2022-10-19T06:49:26;17.52;;;8.48;;
66546;SDS011;53400;50.364;14.874;2022-10-19T06:51:53;17.50;;;8.68;;
66546;SDS011;53400;50.364;14.874;2022-10-19T06:54:19;20.48;;;8.95;;
66546;SDS011;53400;50.364;14.874;2022-10-19T06:56:45;14.98;;;8.27;;
66546;SDS011;53400;50.364;14.874;2022-10-19T06:59:11;20.63;;;10.18;;
66546;SDS011;53400;50.364;14.874;2022-10-19T07:01:38;16.73;;;8.90;;
66546;SDS011;53400;50.364;14.874;2022-10-19T07:04:04;18.50;;;9.80;;
66546;SDS011;53400;50.364;14.874;2022-10-19T07:06:30;16.95;;;9.70;;
66546;SDS011;53400;50.364;14.874;2022-10-19T07:08:57;19.70;;;9.85;;
66546;SDS011;53400;50.364;14.874;2022-10-19T07:11:23;19.25;;;9.93;;
66546;SDS011;53400;50.364;14.874;2022-10-19T07:13:50;18.70;;;9.63;;
66546;SDS011;53400;50.364;14.874;2022-10-19T07:16:17;16.55;;;9.00;;
66546;SDS011;53400;50.364;14.874;2022-10-19T07:18:43;18.25;;;9.00;;
66546;SDS011;53400;50.364;14.874;2022-10-19T07:21:10;26.10;;;9.55;;
66546;SDS011;53400;50.364;14.874;2022-10-19T07:23:39;18.25;;;9.02;;
66546;SDS011;53400;50.364;14.874;2022-10-19T07:26:07;19.77;;;9.57;;
66546;SDS011;53400;50.364;14.874;2022-10-19T07:28:37;19.60;;;9.48;;
66546;SDS011;53400;50.364;14.874;2022-10-19T07:31:04;19.83;;;9.23;;
66546;SDS011;53400;50.364;14.874;2022-10-19T07:33:32;18.77;;;9.80;;
66546;SDS011;53400;50.364;14.874;2022-10-19T07:35:58;15.02;;;8.38;;
66546;SDS011;53400;50.364;14.874;2022-10-19T07:38:25;17.95;;;8.63;;
66546;SDS011;53400;50.364;14.874;2022-10-19T07:40:51;18.33;;;9.48;;
66546;SDS011;53400;50.364;14.874;2022-10-19T07:43:26;16.73;;;9.05;;
66546;SDS011;53400;50.364;14.874;2022-10-19T07:45:55;14.88;;;8.43;;
66546;SDS011;53400;50.364;14.874;2022-10-19T07:48:23;18.02;;;8.35;;
66546;SDS011;53400;50.364;14.874;2022-10-19T07:50:48;15.45;;;8.10;;
66546;SDS011;53400;50.364;14.874;2022-10-19T07:53:15;16.00;;;8.80;;
66546;SDS011;53400;50.364;14.874;2022-10-19T07:55:40;14.05;;;7.28;;
66546;SDS011;53400;50.364;14.874;2022-10-19T07:58:06;13.93;;;7.95;;
66546;SDS011;53400;50.364;14.874;2022-10-19T08:00:33;12.80;;;7.70;;
66546;SDS011;53400;50.364;14.874;2022-10-19T08:02:59;12.50;;;7.10;;
66546;SDS011;53400;50.364;14.874;2022-10-19T08:05:25;12.95;;;7.18;;
66546;SDS011;53400;50.364;14.874;2022-10-19T08:07:51;15.95;;;8.90;;
66546;SDS011;53400;50.364;14.874;2022-10-19T08:10:17;15.13;;;7.47;;
66546;SDS011;53400;50.364;14.874;2022-10-19T08:12:43;14.80;;;6.97;;
66546;SDS011;53400;50.364;14.874;2022-10-19T08:15:09;12.68;;;6.28;;
66546;SDS011;53400;50.364;14.874;2022-10-19T08:17:36;13.73;;;6.13;;
66546;SDS011;53400;50.364;14.874;2022-10-19T08:20:03;11.40;;;5.75;;
66546;SDS011;53400;50.364;14.874;2022-10-19T08:22:30;12.20;;;5.32;;
66546;SDS011;53400;50.364;14.874;2022-10-19T08:24:56;10.18;;;5.70;;
66546;SDS011;53400;50.364;14.874;2022-10-19T08:27:22;10.40;;;5.15;;
66546;SDS011;53400;50.364;14.874;2022-10-19T08:29:48;11.18;;;5.28;;
66546;SDS011;53400;50.364;14.874;2022-10-19T08:32:14;11.63;;;5.50;;
66546;SDS011;53400;50.364;14.874;2022-10-19T08:34:41;11.07;;;5.63;;
66546;SDS011;53400;50.364;14.874;2022-10-19T08:37:07;10.40;;;4.95;;
66546;SDS011;53400;50.364;14.874;2022-10-19T08:39:33;8.43;;;4.38;;
66546;SDS011;53400;50.364;14.874;2022-10-19T08:42:00;10.20;;;4.78;;
66546;SDS011;53400;50.364;14.874;2022-10-19T08:47:43;11.18;;;4.85;;
66546;SDS011;53400;50.364;14.874;2022-10-19T08:50:19;11.32;;;4.38;;
66546;SDS011;53400;50.364;14.874;2022-10-19T08:52:49;10.05;;;3.75;;
66546;SDS011;53400;50.364;14.874;2022-10-19T08:55:21;8.23;;;4.50;;
66546;SDS011;53400;50.364;14.874;2022-10-19T08:57:56;9.98;;;3.50;;
66546;SDS011;53400;50.364;14.874;2022-10-19T09:00:33;8.85;;;3.50;;
66546;SDS011;53400;50.364;14.874;2022-10-19T09:03:10;8.50;;;3.97;;
66546;SDS011;53400;50.364;14.874;2022-10-19T09:05:44;6.68;;;2.90;;
66546;SDS011;53400;50.364;14.874;2022-10-19T09:08:14;8.02;;;2.53;;
66546;SDS011;53400;50.364;14.874;2022-10-19T09:10:43;8.05;;;2.38;;
66546;SDS011;53400;50.364;14.874;2022-10-19T09:13:13;6.47;;;2.42;;
66546;SDS011;53400;50.364;14.874;2022-10-19T09:15:44;5.60;;;2.22;;
66546;SDS011;53400;50.364;14.874;2022-10-19T09:18:13;5.97;;;2.20;;
66546;SDS011;53400;50.364;14.874;2022-10-19T09:20:47;6.13;;;2.05;;
66546;SDS011;53400;50.364;14.874;2022-10-19T09:23:19;5.80;;;2.25;;
66546;SDS011;53400;50.364;14.874;2022-10-19T09:25:46;6.07;;;2.53;;
66546;SDS011;53400;50.364;14.874;2022-10-19T09:28:16;5.20;;;2.20;;
66546;SDS011;53400;50.364;14.874;2022-10-19T09:30:58;5.30;;;2.08;;
66546;SDS011;53400;50.364;14.874;2022-10-19T09:33:25;8.30;;;2.50;;
66546;SDS011;53400;50.364;14.874;2022-10-19T09:35:55;9.68;;;2.60;;
66546;SDS011;53400;50.364;14.874;2022-10-19T09:38:24;7.88;;;2.72;;
66546;SDS011;53400;50.364;14.874;2022-10-19T09:40:51;7.97;;;2.58;;
66546;SDS011;53400;50.364;14.874;2022-10-19T09:43:18;6.85;;;2.80;;
66546;SDS011;53400;50.364;14.874;2022-10-19T09:45:47;6.72;;;3.00;;
66546;SDS011;53400;50.364;14.874;2022-10-19T09:48:18;9.32;;;3.42;;
66546;SDS011;53400;50.364;14.874;2022-10-19T09:51:02;8.82;;;3.50;;
66546;SDS011;53400;50.364;14.874;2022-10-19T09:53:35;8.65;;;3.05;;
66546;SDS011;53400;50.364;14.874;2022-10-19T09:56:02;8.68;;;2.90;;
66546;SDS011;53400;50.364;14.874;2022-10-19T09:58:31;9.43;;;2.72;;
66546;SDS011;53400;50.364;14.874;2022-10-19T10:00:58;5.78;;;1.63;;
66546;SDS011;53400;50.364;14.874;2022-10-19T10:03:25;5.65;;;1.92;;
66546;SDS011;53400;50.364;14.874;2022-10-19T10:05:54;9.65;;;2.90;;
66546;SDS011;53400;50.364;14.874;2022-10-19T10:08:24;5.65;;;1.40;;
66546;SDS011;53400;50.364;14.874;2022-10-19T10:10:56;5.25;;;1.40;;
66546;SDS011;53400;50.364;14.874;2022-10-19T10:13:29;3.80;;;1.25;;
66546;SDS011;53400;50.364;14.874;2022-10-19T10:15:55;6.15;;;1.92;;
66546;SDS011;53400;50.364;14.874;2022-10-19T10:18:24;7.32;;;1.92;;
66546;SDS011;53400;50.364;14.874;2022-10-19T10:20:59;6.78;;;2.22;;
66546;SDS011;53400;50.364;14.874;2022-10-19T10:23:28;5.85;;;2.00;;
66546;SDS011;53400;50.364;14.874;2022-10-19T10:25:57;7.07;;;2.30;;
66546;SDS011;53400;50.364;14.874;2022-10-19T10:28:24;6.18;;;2.58;;
66546;SDS011;53400;50.364;14.874;2022-10-19T10:30:52;7.05;;;2.28;;
66546;SDS011;53400;50.364;14.874;2022-10-19T10:33:23;5.72;;;1.80;;
66546;SDS011;53400;50.364;14.874;2022-10-19T10:35:53;7.80;;;1.80;;
66546;SDS011;53400;50.364;14.874;2022-10-19T10:38:22;6.97;;;2.45;;
66546;SDS011;53400;50.364;14.874;2022-10-19T10:40:52;6.53;;;2.00;;
66546;SDS011;53400;50.364;14.874;2022-10-19T10:43:23;5.90;;;2.25;;
66546;SDS011;53400;50.364;14.874;2022-10-19T10:45:53;3.88;;;1.55;;
66546;SDS011;53400;50.364;14.874;2022-10-19T10:48:26;5.40;;;2.10;;
66546;SDS011;53400;50.364;14.874;2022-10-19T10:50:54;4.28;;;1.45;;
66546;SDS011;53400;50.364;14.874;2022-10-19T10:53:30;5.22;;;1.60;;
66546;SDS011;53400;50.364;14.874;2022-10-19T10:56:03;4.57;;;1.48;;
66546;SDS011;53400;50.364;14.874;2022-10-19T10:58:35;5.95;;;1.60;;
66546;SDS011;53400;50.364;14.874;2022-10-19T11:01:16;2.83;;;1.00;;
66546;SDS011;53400;50.364;14.874;2022-10-19T11:03:48;5.15;;;1.23;;
66546;SDS011;53400;50.364;14.874;2022-10-19T11:06:18;3.97;;;1.58;;
66546;SDS011;53400;50.364;14.874;2022-10-19T11:08:48;4.85;;;1.70;;
66546;SDS011;53400;50.364;14.874;2022-10-19T11:11:19;4.68;;;1.50;;
66546;SDS011;53400;50.364;14.874;2022-10-19T11:13:49;4.50;;;1.60;;
66546;SDS011;53400;50.364;14.874;2022-10-19T11:16:18;6.05;;;1.42;;
66546;SDS011;53400;50.364;14.874;2022-10-19T11:18:49;8.48;;;2.30;;
66546;SDS011;53400;50.364;14.874;2022-10-19T11:21:19;6.05;;;1.80;;
66546;SDS011;53400;50.364;14.874;2022-10-19T11:23:53;6.50;;;1.80;;
66546;SDS011;53400;50.364;14.874;2022-10-19T11:26:37;3.50;;;1.52;;
66546;SDS011;53400;50.364;14.874;2022-10-19T11:29:15;7.80;;;2.08;;
66546;SDS011;53400;50.364;14.874;2022-10-19T11:31:53;8.07;;;2.10;;
66546;SDS011;53400;50.364;14.874;2022-10-19T11:34:26;4.93;;;2.00;;
66546;SDS011;53400;50.364;14.874;2022-10-19T11:37:03;4.32;;;1.40;;
66546;SDS011;53400;50.364;14.874;2022-10-19T11:39:39;6.28;;;1.90;;
66546;SDS011;53400;50.364;14.874;2022-10-19T11:42:17;5.85;;;2.70;;
66546;SDS011;53400;50.364;14.874;2022-10-19T11:44:51;5.85;;;2.03;;
66546;SDS011;53400;50.364;14.874;2022-10-19T11:47:39;9.13;;;3.00;;
66546;SDS011;53400;50.364;14.874;2022-10-19T11:50:24;5.75;;;2.40;;
66546;SDS011;53400;50.364;14.874;2022-10-19T11:52:57;5.20;;;1.90;;
66546;SDS011;53400;50.364;14.874;2022-10-19T11:55:33;5.47;;;2.58;;
66546;SDS011;53400;50.364;14.874;2022-10-19T11:58:10;5.88;;;2.30;;
66546;SDS011;53400;50.364;14.874;2022-10-19T12:00:53;5.00;;;1.67;;
66546;SDS011;53400;50.364;14.874;2022-10-19T12:03:32;4.07;;;1.60;;
66546;SDS011;53400;50.364;14.874;2022-10-19T12:06:28;4.78;;;1.77;;
66546;SDS011;53400;50.364;14.874;2022-10-19T12:11:44;3.55;;;1.33;;
66546;SDS011;53400;50.364;14.874;2022-10-19T12:14:22;5.38;;;2.28;;
66546;SDS011;53400;50.364;14.874;2022-10-19T12:16:52;6.30;;;2.38;;
66546;SDS011;53400;50.364;14.874;2022-10-19T12:19:21;6.95;;;2.50;;
66546;SDS011;53400;50.364;14.874;2022-10-19T12:21:51;5.68;;;2.38;;
66546;SDS011;53400;50.364;14.874;2022-10-19T12:24:20;11.50;;;4.93;;
66546;SDS011;53400;50.364;14.874;2022-10-19T12:26:49;7.80;;;3.25;;
66546;SDS011;53400;50.364;14.874;2022-10-19T12:29:18;8.43;;;4.07;;
66546;SDS011;53400;50.364;14.874;2022-10-19T12:31:49;9.32;;;4.50;;
66546;SDS011;53400;50.364;14.874;2022-10-19T12:34:20;11.02;;;6.30;;
66546;SDS011;53400;50.364;14.874;2022-10-19T12:36:55;6.97;;;3.60;;
66546;SDS011;53400;50.364;14.874;2022-10-19T12:39:26;6.03;;;1.58;;
66546;SDS011;53400;50.364;14.874;2022-10-19T12:42:00;5.63;;;2.10;;
66546;SDS011;53400;50.364;14.874;2022-10-19T12:53:41;8.35;;;3.63;;
66546;SDS011;53400;50.364;14.874;2022-10-19T12:56:11;7.53;;;2.88;;
66546;SDS011;53400;50.364;14.874;2022-10-19T12:58:47;6.27;;;2.70;;
66546;SDS011;53400;50.364;14.874;2022-10-19T13:01:19;5.57;;;2.15;;
66546;SDS011;53400;50.364;14.874;2022-10-19T13:03:48;6.63;;;2.25;;
66546;SDS011;53400;50.364;14.874;2022-10-19T13:06:18;7.72;;;3.25;;
66546;SDS011;53400;50.364;14.874;2022-10-19T13:08:57;9.00;;;3.38;;
66546;SDS011;53400;50.364;14.874;2022-10-19T13:11:25;11.25;;;5.60;;
66546;SDS011;53400;50.364;14.874;2022-10-19T13:14:01;12.77;;;6.00;;
66546;SDS011;53400;50.364;14.874;2022-10-19T13:19:22;9.88;;;3.67;;
66546;SDS011;53400;50.364;14.874;2022-10-19T13:21:49;5.82;;;2.83;;
66546;SDS011;53400;50.364;14.874;2022-10-19T13:24:19;6.20;;;2.42;;
66546;SDS011;53400;50.364;14.874;2022-10-19T13:29:50;13.88;;;6.10;;
66546;SDS011;53400;50.364;14.874;2022-10-19T13:32:38;11.23;;;4.70;;
66546;SDS011;53400;50.364;14.874;2022-10-19T13:35:29;10.10;;;4.18;;
66546;SDS011;53400;50.364;14.874;2022-10-19T13:38:10;8.85;;;4.10;;
66546;SDS011;53400;50.364;14.874;2022-10-19T13:43:54;10.27;;;5.50;;
66546;SDS011;53400;50.364;14.874;2022-10-19T13:46:33;13.32;;;5.30;;
66546;SDS011;53400;50.364;14.874;2022-10-19T13:49:29;5.70;;;2.65;;
66546;SDS011;53400;50.364;14.874;2022-10-19T13:55:15;9.18;;;2.88;;
66546;SDS011;53400;50.364;14.874;2022-10-19T13:57:56;4.82;;;1.95;;
66546;SDS011;53400;50.364;14.874;2022-10-19T14:00:44;9.95;;;3.90;;
66546;SDS011;53400;50.364;14.874;2022-10-19T14:03:27;11.75;;;5.68;;
66546;SDS011;53400;50.364;14.874;2022-10-19T14:06:12;11.20;;;5.40;;
66546;SDS011;53400;50.364;14.874;2022-10-19T14:11:49;4.25;;;1.83;;
66546;SDS011;53400;50.364;14.874;2022-10-19T14:14:18;7.63;;;2.72;;
66546;SDS011;53400;50.364;14.874;2022-10-19T14:16:48;8.60;;;3.42;;
66546;SDS011;53400;50.364;14.874;2022-10-19T14:19:20;6.60;;;2.90;;
66546;SDS011;53400;50.364;14.874;2022-10-19T14:21:52;7.17;;;3.00;;
66546;SDS011;53400;50.364;14.874;2022-10-19T14:24:22;8.32;;;3.45;;
66546;SDS011;53400;50.364;14.874;2022-10-19T14:26:53;8.52;;;4.05;;
66546;SDS011;53400;50.364;14.874;2022-10-19T14:29:19;6.43;;;3.33;;
66546;SDS011;53400;50.364;14.874;2022-10-19T14:31:45;4.03;;;2.17;;
66546;SDS011;53400;50.364;14.874;2022-10-19T14:34:12;6.75;;;1.90;;
66546;SDS011;53400;50.364;14.874;2022-10-19T14:36:38;4.45;;;1.70;;
66546;SDS011;53400;50.364;14.874;2022-10-19T14:39:10;4.90;;;2.00;;
66546;SDS011;53400;50.364;14.874;2022-10-19T14:41:51;7.45;;;2.72;;
66546;SDS011;53400;50.364;14.874;2022-10-19T14:44:35;6.25;;;2.65;;
66546;SDS011;53400;50.364;14.874;2022-10-19T14:47:06;10.55;;;3.80;;
66546;SDS011;53400;50.364;14.874;2022-10-19T14:49:41;7.85;;;3.55;;
66546;SDS011;53400;50.364;14.874;2022-10-19T14:52:07;7.28;;;2.40;;
66546;SDS011;53400;50.364;14.874;2022-10-19T14:54:36;7.47;;;3.00;;
66546;SDS011;53400;50.364;14.874;2022-10-19T14:57:07;5.80;;;2.60;;
66546;SDS011;53400;50.364;14.874;2022-10-19T14:59:38;11.10;;;5.60;;
66546;SDS011;53400;50.364;14.874;2022-10-19T15:02:14;9.70;;;4.88;;
66546;SDS011;53400;50.364;14.874;2022-10-19T15:04:43;11.30;;;6.57;;
66546;SDS011;53400;50.364;14.874;2022-10-19T15:07:14;10.52;;;5.18;;
66546;SDS011;53400;50.364;14.874;2022-10-19T15:09:48;18.85;;;10.80;;
66546;SDS011;53400;50.364;14.874;2022-10-19T15:12:19;15.48;;;8.88;;
66546;SDS011;53400;50.364;14.874;2022-10-19T15:14:51;17.13;;;10.02;;